Time;durP1;ratioP1;P1;durP2;ratioP2;P2;SDS_P1;SDS_P2;PMS_P1;PMS_P2;Temp;Humidity;BMP_temperature;BMP_pressure;BME280_temperature;BME280_humidity;BME280_pressure;Samples;Min_cycle;Max_cycle;Signal;HPM_P1;HPM_P2
2022/09/21 00:01:05;;;;;;;11.77;5.30;;;;;;;;;;5051270;28;20456;-48
2022/09/21 00:03:31;;;;;;;4.83;4.43;;;;;;;;;;5044918;28;20527;-48
2022/09/21 00:06:04;;;;;;;6.30;5.40;;;;;;;;;;5042674;28;20507;-47
2022/09/21 00:08:30;;;;;;;5.40;4.80;;;;;;;;;;5037540;28;20412;-47
2022/09/21 00:10:56;;;;;;;8.27;5.33;;;;;;;;;;5033081;28;20885;-47
2022/09/21 00:13:23;;;;;;;7.53;4.97;;;;;;;;;;5046160;28;20501;-47
2022/09/21 00:15:49;;;;;;;6.73;5.27;;;;;;;;;;5040158;28;20908;-47
2022/09/21 00:18:16;;;;;;;6.37;4.93;;;;;;;;;;5042037;28;20431;-46
2022/09/21 00:20:45;;;;;;;5.43;4.93;;;;;;;;;;5048007;28;20452;-47
2022/09/21 00:23:11;;;;;;;6.83;5.07;;;;;;;;;;5039273;28;20418;-47
2022/09/21 00:25:37;;;;;;;11.20;5.80;;;;;;;;;;5049368;28;20418;-45
2022/09/21 00:28:03;;;;;;;5.83;5.20;;;;;;;;;;5038494;28;20464;-46
2022/09/21 00:30:29;;;;;;;6.23;5.73;;;;;;;;;;5047310;28;20425;-47
2022/09/21 00:32:55;;;;;;;13.10;5.53;;;;;;;;;;5052754;28;20439;-47
2022/09/21 00:35:21;;;;;;;12.43;5.60;;;;;;;;;;5041329;28;20409;-47
2022/09/21 00:37:47;;;;;;;6.97;5.30;;;;;;;;;;5051450;28;20433;-47
2022/09/21 00:40:13;;;;;;;5.90;5.20;;;;;;;;;;5038563;28;20415;-47
2022/09/21 00:42:39;;;;;;;9.20;5.70;;;;;;;;;;5041601;28;20461;-47
2022/09/21 00:45:06;;;;;;;6.10;5.50;;;;;;;;;;5053170;28;20402;-47
2022/09/21 00:47:32;;;;;;;8.60;6.10;;;;;;;;;;5054807;28;20449;-47
2022/09/21 00:49:59;;;;;;;10.13;6.13;;;;;;;;;;5036737;28;20416;-47
2022/09/21 00:52:26;;;;;;;7.10;5.10;;;;;;;;;;5053940;28;20768;-47
2022/09/21 00:55:02;;;;;;;6.20;5.03;;;;;;;;;;5037544;28;20808;-48
2022/09/21 00:57:32;;;;;;;10.23;6.03;;;;;;;;;;5034688;28;20474;-47
2022/09/21 01:00:00;;;;;;;9.83;7.03;;;;;;;;;;5050729;28;20430;-47
2022/09/21 01:02:27;;;;;;;14.10;6.90;;;;;;;;;;5037066;28;20472;-46
2022/09/21 01:04:53;;;;;;;7.63;5.57;;;;;;;;;;5037131;28;20447;-46
2022/09/21 01:07:22;;;;;;;6.67;5.50;;;;;;;;;;5053408;28;20543;-47
2022/09/21 01:09:49;;;;;;;8.70;5.80;;;;;;;;;;5039062;28;20421;-48
2022/09/21 01:12:25;;;;;;;14.30;5.27;;;;;;;;;;5042079;28;20477;-46
2022/09/21 01:15:10;;;;;;;6.43;5.23;;;;;;;;;;5038168;28;20810;-46
2022/09/21 01:17:41;;;;;;;5.77;4.80;;;;;;;;;;5052400;28;20439;-45
2022/09/21 01:20:07;;;;;;;5.67;4.73;;;;;;;;;;5044004;28;20414;-47
2022/09/21 01:22:36;;;;;;;6.60;5.87;;;;;;;;;;5051856;28;21120;-47
2022/09/21 01:25:02;;;;;;;8.07;5.30;;;;;;;;;;5037104;28;20465;-46
2022/09/21 01:27:42;;;;;;;12.37;6.13;;;;;;;;;;5045642;28;20447;-47
2022/09/21 01:30:12;;;;;;;6.83;5.63;;;;;;;;;;5048536;28;20898;-48
2022/09/21 01:32:44;;;;;;;9.87;5.20;;;;;;;;;;5033254;28;20497;-48
2022/09/21 01:35:14;;;;;;;6.03;5.43;;;;;;;;;;5050457;28;20425;-48
2022/09/21 01:37:43;;;;;;;6.43;5.80;;;;;;;;;;5050944;28;20855;-48
2022/09/21 01:40:11;;;;;;;8.63;5.30;;;;;;;;;;5040068;28;20433;-46
2022/09/21 01:42:39;;;;;;;6.17;4.57;;;;;;;;;;5034346;28;20460;-45
2022/09/21 01:45:06;;;;;;;8.57;5.60;;;;;;;;;;5049532;28;20910;-46
2022/09/21 01:47:33;;;;;;;10.53;5.00;;;;;;;;;;5033770;28;20466;-47
2022/09/21 01:50:01;;;;;;;6.37;5.53;;;;;;;;;;5049582;28;20419;-47
2022/09/21 01:52:50;;;;;;;8.23;5.20;;;;;;;;;;5052671;28;20476;-47
2022/09/21 01:55:22;;;;;;;5.63;5.10;;;;;;;;;;5032414;28;20439;-47
2022/09/21 01:58:01;;;;;;;8.97;5.60;;;;;;;;;;5033140;28;20433;-46
2022/09/21 02:00:29;;;;;;;10.27;5.73;;;;;;;;;;5033440;28;21004;-46
2022/09/21 02:02:57;;;;;;;7.40;5.87;;;;;;;;;;5038558;28;20431;-45
2022/09/21 02:05:24;;;;;;;5.27;4.43;;;;;;;;;;5033473;28;20525;-45
2022/09/21 02:07:52;;;;;;;6.20;5.57;;;;;;;;;;5047260;28;20444;-47
2022/09/21 02:10:22;;;;;;;6.87;5.30;;;;;;;;;;5053234;28;20402;-46
2022/09/21 02:12:50;;;;;;;11.27;6.03;;;;;;;;;;5034174;28;20427;-45
2022/09/21 02:15:17;;;;;;;7.43;5.87;;;;;;;;;;5051554;28;20471;-47
2022/09/21 02:18:05;;;;;;;6.80;5.80;;;;;;;;;;5035757;28;20432;-48
2022/09/21 02:20:35;;;;;;;8.80;6.07;;;;;;;;;;5033252;28;20764;-47
2022/09/21 02:23:02;;;;;;;5.80;5.27;;;;;;;;;;5048757;28;20545;-47
2022/09/21 02:25:35;;;;;;;8.00;5.27;;;;;;;;;;5037524;28;20421;-47
2022/09/21 02:28:05;;;;;;;9.10;5.77;;;;;;;;;;5046675;28;20439;-47
2022/09/21 02:30:33;;;;;;;6.47;5.50;;;;;;;;;;5038335;28;21058;-46
2022/09/21 02:33:04;;;;;;;7.70;6.10;;;;;;;;;;5032477;28;20417;-47
2022/09/21 02:35:49;;;;;;;10.70;6.70;;;;;;;;;;5032919;28;20485;-47
2022/09/21 02:38:17;;;;;;;7.80;6.00;;;;;;;;;;5041075;28;20488;-47
2022/09/21 02:40:50;;;;;;;6.47;5.87;;;;;;;;;;5051858;28;20464;-47
2022/09/21 02:43:36;;;;;;;9.67;6.03;;;;;;;;;;5036323;28;20955;-47
2022/09/21 02:46:09;;;;;;;7.30;6.50;;;;;;;;;;5044407;28;20510;-47
2022/09/21 02:48:40;;;;;;;6.70;5.67;;;;;;;;;;5032551;28;20474;-47
2022/09/21 02:51:09;;;;;;;8.57;6.20;;;;;;;;;;5039735;28;20413;-47
2022/09/21 02:53:37;;;;;;;9.00;5.63;;;;;;;;;;5047595;28;20452;-47
2022/09/21 02:56:06;;;;;;;10.63;6.13;;;;;;;;;;5032426;28;20986;-46
2022/09/21 02:58:33;;;;;;;7.83;5.40;;;;;;;;;;5050439;28;20916;-47
2022/09/21 03:00:59;;;;;;;11.47;6.30;;;;;;;;;;5052311;28;20455;-43
2022/09/21 03:03:25;;;;;;;8.77;6.20;;;;;;;;;;5036258;28;20448;-43
2022/09/21 03:05:54;;;;;;;12.90;6.40;;;;;;;;;;5050276;28;20404;-44
2022/09/21 03:08:21;;;;;;;9.60;5.80;;;;;;;;;;5032200;28;20503;-43
2022/09/21 03:10:48;;;;;;;8.07;6.10;;;;;;;;;;5032840;28;20494;-43
2022/09/21 03:13:15;;;;;;;6.63;6.03;;;;;;;;;;5050615;28;20419;-43
2022/09/21 03:15:41;;;;;;;7.37;5.13;;;;;;;;;;5032126;28;20787;-44
2022/09/21 03:18:10;;;;;;;7.73;5.90;;;;;;;;;;5046539;28;20438;-44
2022/09/21 03:20:37;;;;;;;7.50;6.10;;;;;;;;;;5051579;28;20508;-43
2022/09/21 03:23:03;;;;;;;9.90;6.87;;;;;;;;;;5037227;28;20415;-44
2022/09/21 03:25:29;;;;;;;8.50;6.33;;;;;;;;;;5042392;28;20800;-44
2022/09/21 03:27:56;;;;;;;11.87;5.73;;;;;;;;;;5049448;28;20442;-44
2022/09/21 03:30:23;;;;;;;7.07;6.07;;;;;;;;;;5031920;28;20892;-43
2022/09/21 03:32:50;;;;;;;11.73;5.63;;;;;;;;;;5039670;28;20414;-43
2022/09/21 03:35:16;;;;;;;9.30;6.73;;;;;;;;;;5035075;28;20429;-44
2022/09/21 03:37:42;;;;;;;7.30;5.83;;;;;;;;;;5049618;28;20521;-43
2022/09/21 03:40:08;;;;;;;8.67;6.10;;;;;;;;;;5043980;28;20448;-45
2022/09/21 03:42:34;;;;;;;8.83;6.57;;;;;;;;;;5042294;28;20462;-44
2022/09/21 03:45:01;;;;;;;7.03;6.30;;;;;;;;;;5048523;28;20436;-44
2022/09/21 03:47:28;;;;;;;7.53;6.80;;;;;;;;;;5035169;28;20486;-44
2022/09/21 03:49:54;;;;;;;9.10;6.07;;;;;;;;;;5040440;28;20424;-43
2022/09/21 03:52:20;;;;;;;8.23;5.43;;;;;;;;;;5050101;28;20919;-43
2022/09/21 03:54:46;;;;;;;10.63;6.40;;;;;;;;;;5048666;28;20419;-43
2022/09/21 03:57:12;;;;;;;7.47;5.73;;;;;;;;;;5035813;28;20430;-43
2022/09/21 03:59:41;;;;;;;10.07;6.63;;;;;;;;;;5040539;28;20471;-43
2022/09/21 04:02:07;;;;;;;11.43;7.37;;;;;;;;;;5053146;28;20839;-43
2022/09/21 04:04:33;;;;;;;11.40;6.90;;;;;;;;;;5051634;28;20492;-43
2022/09/21 04:06:59;;;;;;;8.83;6.23;;;;;;;;;;5035615;28;20933;-43
2022/09/21 04:09:25;;;;;;;6.60;6.00;;;;;;;;;;5036678;28;20809;-43
2022/09/21 04:11:52;;;;;;;11.73;7.20;;;;;;;;;;5035289;28;20411;-43
2022/09/21 04:14:19;;;;;;;8.13;6.13;;;;;;;;;;5040496;28;20421;-44
2022/09/21 04:16:45;;;;;;;8.17;6.03;;;;;;;;;;5035818;28;20444;-44
2022/09/21 04:19:12;;;;;;;9.03;5.40;;;;;;;;;;5035482;28;20486;-44
2022/09/21 04:21:38;;;;;;;10.03;6.10;;;;;;;;;;5040242;28;20554;-43
2022/09/21 04:24:04;;;;;;;10.03;6.60;;;;;;;;;;5054771;28;20502;-43
2022/09/21 04:26:31;;;;;;;9.20;5.50;;;;;;;;;;5038917;28;20473;-43
2022/09/21 04:28:58;;;;;;;11.53;5.73;;;;;;;;;;5055056;28;20537;-43
2022/09/21 04:31:24;;;;;;;12.53;6.53;;;;;;;;;;5047518;28;20418;-45
2022/09/21 04:33:51;;;;;;;10.70;5.63;;;;;;;;;;5034696;28;20418;-44
2022/09/21 04:36:17;;;;;;;9.83;6.77;;;;;;;;;;5035182;28;20427;-43
2022/09/21 04:38:44;;;;;;;9.77;6.60;;;;;;;;;;5035018;28;20938;-43
2022/09/21 04:41:10;;;;;;;13.30;6.33;;;;;;;;;;5034736;28;20814;-43
2022/09/21 04:43:36;;;;;;;8.40;5.77;;;;;;;;;;5042060;28;20437;-43
2022/09/21 04:46:06;;;;;;;15.90;6.13;;;;;;;;;;5054771;28;20453;-43
2022/09/21 04:48:33;;;;;;;17.10;7.10;;;;;;;;;;5054739;28;20401;-43
2022/09/21 04:50:59;;;;;;;11.30;7.03;;;;;;;;;;5054495;28;20437;-43
2022/09/21 04:53:25;;;;;;;14.37;9.20;;;;;;;;;;5054407;28;20894;-43
2022/09/21 04:55:51;;;;;;;14.60;10.47;;;;;;;;;;5055007;28;20498;-43
2022/09/21 04:58:17;;;;;;;13.20;7.33;;;;;;;;;;5053689;28;20460;-43
2022/09/21 05:00:43;;;;;;;11.43;6.83;;;;;;;;;;5054432;28;20882;-43
2022/09/21 05:03:09;;;;;;;13.90;6.80;;;;;;;;;;5053588;28;20925;-44
2022/09/21 05:05:35;;;;;;;13.20;6.40;;;;;;;;;;5054556;28;20894;-43
2022/09/21 05:08:01;;;;;;;10.50;6.50;;;;;;;;;;5054393;28;20422;-43
2022/09/21 05:10:27;;;;;;;14.10;7.10;;;;;;;;;;5054428;28;20758;-43
2022/09/21 05:13:11;;;;;;;26.97;8.33;;;;;;;;;;5053500;28;20401;-43
2022/09/21 05:15:38;;;;;;;17.03;7.47;;;;;;;;;;5054310;28;20387;-43
2022/09/21 05:18:04;;;;;;;8.87;6.83;;;;;;;;;;5054356;28;20478;-42
2022/09/21 05:20:30;;;;;;;15.40;7.33;;;;;;;;;;5054184;28;20405;-43
2022/09/21 05:23:00;;;;;;;9.80;8.63;;;;;;;;;;5053575;28;20836;-43
2022/09/21 05:25:26;;;;;;;14.20;7.90;;;;;;;;;;5054110;28;20967;-43
2022/09/21 05:27:52;;;;;;;13.67;7.57;;;;;;;;;;5053896;28;20454;-44
2022/09/21 05:30:18;;;;;;;8.97;6.07;;;;;;;;;;5054022;28;20784;-44
2022/09/21 05:32:44;;;;;;;10.90;8.07;;;;;;;;;;5053347;28;20890;-44
2022/09/21 05:35:16;;;;;;;11.67;7.13;;;;;;;;;;5053813;28;20412;-42
2022/09/21 05:38:00;;;;;;;11.80;6.47;;;;;;;;;;5053846;28;20418;-43
2022/09/21 05:40:26;;;;;;;13.63;7.50;;;;;;;;;;5053965;28;20404;-42
2022/09/21 05:42:53;;;;;;;13.73;8.07;;;;;;;;;;5053228;28;20793;-43
2022/09/21 05:45:20;;;;;;;12.87;7.70;;;;;;;;;;5053775;28;20780;-43
2022/09/21 05:47:55;;;;;;;10.77;7.30;;;;;;;;;;5053691;28;20428;-43
2022/09/21 05:50:39;;;;;;;11.00;8.40;;;;;;;;;;5053624;28;20409;-43
2022/09/21 05:53:08;;;;;;;14.53;8.67;;;;;;;;;;5053205;28;20464;-43
2022/09/21 05:55:46;;;;;;;15.73;8.10;;;;;;;;;;5053772;28;20417;-44
2022/09/21 05:58:32;;;;;;;9.67;7.80;;;;;;;;;;5051964;28;20419;-44
2022/09/21 06:01:01;;;;;;;18.00;7.53;;;;;;;;;;5053386;28;20551;-43
2022/09/21 06:03:29;;;;;;;10.30;7.50;;;;;;;;;;5053015;28;20512;-42
2022/09/21 06:05:55;;;;;;;11.43;7.83;;;;;;;;;;5053238;28;20411;-44
2022/09/21 06:08:21;;;;;;;12.33;6.60;;;;;;;;;;5053263;28;20423;-44
2022/09/21 06:10:47;;;;;;;12.43;7.60;;;;;;;;;;5053157;28;20397;-44
2022/09/21 06:13:13;;;;;;;18.30;8.40;;;;;;;;;;5052601;28;20489;-44
2022/09/21 06:15:40;;;;;;;13.17;8.70;;;;;;;;;;5052468;28;20429;-44
2022/09/21 06:18:07;;;;;;;13.90;9.50;;;;;;;;;;5052936;28;20972;-44
2022/09/21 06:20:33;;;;;;;11.53;8.50;;;;;;;;;;5053047;28;20906;-43
2022/09/21 06:23:00;;;;;;;10.63;8.00;;;;;;;;;;5052472;28;20406;-43
2022/09/21 06:25:26;;;;;;;10.53;8.73;;;;;;;;;;5046196;28;20427;-46
2022/09/21 06:27:52;;;;;;;10.77;8.40;;;;;;;;;;5037868;28;20792;-46
2022/09/21 06:30:18;;;;;;;13.00;7.70;;;;;;;;;;5033201;28;20721;-43
2022/09/21 06:32:44;;;;;;;11.53;8.10;;;;;;;;;;5032368;28;20973;-43
2022/09/21 06:35:10;;;;;;;14.37;8.97;;;;;;;;;;5032845;28;20925;-43
2022/09/21 06:37:38;;;;;;;14.73;7.60;;;;;;;;;;5032787;28;20800;-43
2022/09/21 06:40:05;;;;;;;12.10;8.07;;;;;;;;;;5032593;28;20401;-43
2022/09/21 06:42:31;;;;;;;11.07;7.07;;;;;;;;;;5032181;28;20964;-43
2022/09/21 06:44:57;;;;;;;12.53;7.73;;;;;;;;;;5032801;28;20405;-43
2022/09/21 06:47:23;;;;;;;9.93;6.97;;;;;;;;;;5032513;28;20426;-43
2022/09/21 06:49:49;;;;;;;11.87;7.00;;;;;;;;;;5032524;28;20490;-43
2022/09/21 06:52:15;;;;;;;15.40;8.07;;;;;;;;;;5032020;28;20463;-43
2022/09/21 06:54:41;;;;;;;10.17;7.60;;;;;;;;;;5032486;28;20413;-43
2022/09/21 06:57:07;;;;;;;14.47;7.90;;;;;;;;;;5031432;28;20504;-43
2022/09/21 06:59:33;;;;;;;12.83;7.40;;;;;;;;;;5031923;28;20421;-43
2022/09/21 07:01:59;;;;;;;10.30;7.83;;;;;;;;;;5030871;28;20458;-44
2022/09/21 07:04:25;;;;;;;10.47;8.07;;;;;;;;;;5031792;28;20398;-44
2022/09/21 07:06:51;;;;;;;12.47;8.73;;;;;;;;;;5031452;28;20415;-43
2022/09/21 07:09:18;;;;;;;18.73;8.17;;;;;;;;;;5032200;28;20395;-45
2022/09/21 07:11:44;;;;;;;12.60;8.20;;;;;;;;;;5031935;28;20406;-43
2022/09/21 07:14:10;;;;;;;10.27;8.90;;;;;;;;;;5031458;28;20783;-44
2022/09/21 07:16:36;;;;;;;13.93;9.80;;;;;;;;;;5031873;28;20427;-45
2022/09/21 07:19:03;;;;;;;12.97;8.97;;;;;;;;;;5032045;28;20410;-46
2022/09/21 07:21:29;;;;;;;15.00;9.23;;;;;;;;;;5031767;28;20462;-43
2022/09/21 07:23:55;;;;;;;12.60;8.70;;;;;;;;;;5032086;28;20498;-43
2022/09/21 07:26:21;;;;;;;13.90;8.50;;;;;;;;;;5031865;28;20436;-43
2022/09/21 07:28:47;;;;;;;16.50;8.40;;;;;;;;;;5032169;28;20403;-44
2022/09/21 07:31:14;;;;;;;17.10;9.53;;;;;;;;;;5031545;28;20405;-44
2022/09/21 07:33:41;;;;;;;13.40;8.67;;;;;;;;;;5031592;28;20414;-43
2022/09/21 07:36:11;;;;;;;11.10;7.87;;;;;;;;;;5031757;28;20471;-43
2022/09/21 07:38:41;;;;;;;12.03;7.50;;;;;;;;;;5031898;28;20471;-46
2022/09/21 07:41:07;;;;;;;12.00;8.30;;;;;;;;;;5031636;28;20458;-44
2022/09/21 07:43:33;;;;;;;10.23;8.13;;;;;;;;;;5031532;28;20413;-44
2022/09/21 07:46:02;;;;;;;8.70;6.70;;;;;;;;;;5031716;28;20778;-44
2022/09/21 07:48:29;;;;;;;8.57;6.80;;;;;;;;;;5031797;28;20391;-44
2022/09/21 07:51:00;;;;;;;10.30;6.70;;;;;;;;;;5031796;28;20895;-44
2022/09/21 07:53:26;;;;;;;11.00;6.87;;;;;;;;;;5031601;28;20406;-44
2022/09/21 07:55:51;;;;;;;7.97;5.70;;;;;;;;;;5031673;28;20410;-44
2022/09/21 08:01:05;;;;;;;10.67;6.17;;;;;;;;;;5036302;28;20466;-44
2022/09/21 08:03:31;;;;;;;10.33;6.93;;;;;;;;;;5031121;28;20425;-47
2022/09/21 08:05:58;;;;;;;7.63;5.63;;;;;;;;;;5031485;28;20413;-44
2022/09/21 08:08:24;;;;;;;6.67;5.50;;;;;;;;;;5031590;28;20416;-44
2022/09/21 08:10:53;;;;;;;5.97;5.13;;;;;;;;;;5031649;28;20402;-44
2022/09/21 08:13:19;;;;;;;11.53;6.10;;;;;;;;;;5031013;28;20406;-44
2022/09/21 08:15:46;;;;;;;8.07;5.00;;;;;;;;;;5031284;28;20411;-44
2022/09/21 08:18:12;;;;;;;8.23;4.93;;;;;;;;;;5031352;28;20441;-44
2022/09/21 08:20:38;;;;;;;5.30;4.43;;;;;;;;;;5031411;28;20406;-44
2022/09/21 08:23:03;;;;;;;8.63;4.93;;;;;;;;;;5030870;28;20394;-45
2022/09/21 08:25:30;;;;;;;6.17;3.67;;;;;;;;;;5031426;28;20398;-44
2022/09/21 08:27:59;;;;;;;8.10;5.03;;;;;;;;;;5031311;28;20419;-44
2022/09/21 08:30:26;;;;;;;6.63;4.30;;;;;;;;;;5031201;28;20408;-46
2022/09/21 08:32:53;;;;;;;7.27;5.63;;;;;;;;;;5030758;28;20460;-44
2022/09/21 08:35:19;;;;;;;7.20;4.27;;;;;;;;;;5031292;28;20401;-46
2022/09/21 08:37:45;;;;;;;9.83;4.87;;;;;;;;;;5031263;28;20468;-47
2022/09/21 08:40:13;;;;;;;9.60;3.90;;;;;;;;;;5034478;28;20941;-44
2022/09/21 08:42:48;;;;;;;6.23;4.60;;;;;;;;;;5034269;28;20518;-44
2022/09/21 08:45:16;;;;;;;7.20;4.10;;;;;;;;;;5034895;28;20412;-47
2022/09/21 08:47:54;;;;;;;9.13;3.90;;;;;;;;;;5034762;28;21052;-48
2022/09/21 08:50:20;;;;;;;7.20;3.70;;;;;;;;;;5034923;28;20824;-45
2022/09/21 08:52:46;;;;;;;5.00;3.60;;;;;;;;;;5034281;28;20917;-45
2022/09/21 08:55:19;;;;;;;7.13;2.70;;;;;;;;;;5034699;28;20917;-44
2022/09/21 08:57:45;;;;;;;2.93;1.83;;;;;;;;;;5034551;28;20422;-45
2022/09/21 09:00:16;;;;;;;2.70;2.13;;;;;;;;;;5034560;28;20782;-44
2022/09/21 09:02:51;;;;;;;4.10;2.00;;;;;;;;;;5033894;28;20461;-45
2022/09/21 09:05:35;;;;;;;9.77;2.47;;;;;;;;;;5034556;28;20401;-47
2022/09/21 09:08:04;;;;;;;3.97;1.67;;;;;;;;;;5034562;28;20424;-47
2022/09/21 09:10:36;;;;;;;2.23;1.30;;;;;;;;;;5034431;28;20449;-44
2022/09/21 09:13:14;;;;;;;5.87;1.70;;;;;;;;;;5034458;28;20886;-46
2022/09/21 09:15:43;;;;;;;1.77;1.33;;;;;;;;;;5034412;28;20398;-47
2022/09/21 09:18:11;;;;;;;4.37;1.83;;;;;;;;;;5034129;28;20425;-46
2022/09/21 09:20:43;;;;;;;3.37;1.27;;;;;;;;;;5034207;28;20414;-47
2022/09/21 09:23:12;;;;;;;5.70;1.60;;;;;;;;;;5036842;28;20405;-47
2022/09/21 09:25:42;;;;;;;1.63;1.20;;;;;;;;;;5053703;28;20441;-47
2022/09/21 09:28:22;;;;;;;3.63;1.53;;;;;;;;;;5053788;28;20414;-47
2022/09/21 09:30:51;;;;;;;4.07;1.30;;;;;;;;;;5053810;28;20405;-47
2022/09/21 09:33:30;;;;;;;4.10;1.20;;;;;;;;;;5053168;28;20394;-47
2022/09/21 09:36:04;;;;;;;3.30;1.60;;;;;;;;;;5053630;28;20805;-47
2022/09/21 09:38:30;;;;;;;2.87;2.00;;;;;;;;;;5053722;28;20436;-48
2022/09/21 09:41:05;;;;;;;3.70;2.83;;;;;;;;;;5053657;28;20864;-46
2022/09/21 09:43:48;;;;;;;5.07;2.10;;;;;;;;;;5053183;28;20532;-46
2022/09/21 09:46:28;;;;;;;2.00;1.50;;;;;;;;;;5053527;28;20504;-47
2022/09/21 09:48:54;;;;;;;2.00;1.80;;;;;;;;;;5053869;28;20863;-47
2022/09/21 09:51:20;;;;;;;4.83;1.97;;;;;;;;;;5052291;28;20448;-47
2022/09/21 09:53:46;;;;;;;6.30;1.87;;;;;;;;;;5052749;28;20450;-46
2022/09/21 09:56:13;;;;;;;4.47;1.77;;;;;;;;;;5053671;28;20863;-46
2022/09/21 09:58:49;;;;;;;4.80;1.63;;;;;;;;;;5053615;28;20935;-47
2022/09/21 10:01:34;;;;;;;7.00;1.43;;;;;;;;;;5053122;28;20440;-47
2022/09/21 10:04:05;;;;;;;3.77;1.57;;;;;;;;;;5052783;28;20441;-47
2022/09/21 10:06:32;;;;;;;3.23;1.20;;;;;;;;;;5053205;28;20500;-47
2022/09/21 10:08:58;;;;;;;3.97;2.20;;;;;;;;;;5053233;28;20929;-46
2022/09/21 10:11:33;;;;;;;4.80;1.63;;;;;;;;;;5053312;28;20608;-47
2022/09/21 10:14:07;;;;;;;2.17;1.67;;;;;;;;;;5053149;28;20400;-46
2022/09/21 10:16:33;;;;;;;2.37;1.50;;;;;;;;;;5052828;28;20421;-46
2022/09/21 10:19:00;;;;;;;3.90;1.80;;;;;;;;;;5053157;28;20520;-46
2022/09/21 10:21:26;;;;;;;4.80;1.57;;;;;;;;;;5052767;28;20537;-46
2022/09/21 10:24:03;;;;;;;3.13;1.43;;;;;;;;;;5052545;28;20497;-46
2022/09/21 10:26:36;;;;;;;1.43;1.10;;;;;;;;;;5052841;28;20506;-47
2022/09/21 10:29:17;;;;;;;2.13;1.40;;;;;;;;;;5052635;28;20412;-46
2022/09/21 10:31:57;;;;;;;5.67;1.30;;;;;;;;;;5052797;28;20400;-46
2022/09/21 10:34:23;;;;;;;8.10;1.77;;;;;;;;;;5052381;28;20820;-46
2022/09/21 10:36:50;;;;;;;3.20;1.63;;;;;;;;;;5052616;28;20423;-46
2022/09/21 10:39:22;;;;;;;1.83;1.60;;;;;;;;;;5052665;28;20443;-46
2022/09/21 10:41:53;;;;;;;4.20;1.40;;;;;;;;;;5052397;28;20446;-46
2022/09/21 10:44:20;;;;;;;7.03;1.70;;;;;;;;;;5052211;28;20838;-46
2022/09/21 10:46:48;;;;;;;1.60;1.30;;;;;;;;;;5052395;28;20421;-46
2022/09/21 10:49:20;;;;;;;4.37;1.83;;;;;;;;;;5052734;28;20827;-47
2022/09/21 10:51:47;;;;;;;6.30;1.90;;;;;;;;;;5052377;28;20397;-47
2022/09/21 10:54:19;;;;;;;4.40;1.53;;;;;;;;;;5052111;28;20451;-46
2022/09/21 10:56:56;;;;;;;3.47;1.50;;;;;;;;;;5052436;28;20424;-46
2022/09/21 10:59:25;;;;;;;3.60;1.40;;;;;;;;;;5052399;28;20818;-46
2022/09/21 11:01:52;;;;;;;7.90;1.70;;;;;;;;;;5051813;28;20464;-45
2022/09/21 11:04:41;;;;;;;2.43;1.50;;;;;;;;;;5052003;28;20434;-46
2022/09/21 11:07:12;;;;;;;6.93;1.70;;;;;;;;;;5052552;28;20429;-46
2022/09/21 11:09:45;;;;;;;2.70;1.30;;;;;;;;;;5052498;28;20413;-46
2022/09/21 11:12:26;;;;;;;7.20;1.03;;;;;;;;;;5051624;28;20424;-46
2022/09/21 11:15:11;;;;;;;9.77;1.40;;;;;;;;;;5052225;28;20447;-47
2022/09/21 11:17:53;;;;;;;3.40;1.20;;;;;;;;;;5052391;28;20455;-46
2022/09/21 11:20:28;;;;;;;2.90;1.23;;;;;;;;;;5052066;28;20833;-46
2022/09/21 11:23:02;;;;;;;2.40;1.87;;;;;;;;;;5050796;28;20466;-46
2022/09/21 11:25:30;;;;;;;1.77;1.10;;;;;;;;;;5051029;28;20932;-46
2022/09/21 11:28:01;;;;;;;3.20;1.77;;;;;;;;;;5051224;28;20403;-46
2022/09/21 11:30:32;;;;;;;2.33;1.17;;;;;;;;;;5052058;28;20398;-46
2022/09/21 11:33:10;;;;;;;1.33;1.20;;;;;;;;;;5051567;28;20409;-47
2022/09/21 11:36:02;;;;;;;2.30;1.20;;;;;;;;;;5051893;28;20397;-46
2022/09/21 11:38:31;;;;;;;3.67;1.30;;;;;;;;;;5042227;28;20514;-46
2022/09/21 11:41:06;;;;;;;3.93;1.57;;;;;;;;;;5051350;28;20415;-47
2022/09/21 11:43:33;;;;;;;1.40;0.90;;;;;;;;;;5050054;28;20419;-47
2022/09/21 11:46:05;;;;;;;2.63;1.23;;;;;;;;;;5051302;28;20404;-46
2022/09/21 11:48:35;;;;;;;6.00;1.40;;;;;;;;;;5050756;28;20498;-47
2022/09/21 11:51:01;;;;;;;2.07;1.13;;;;;;;;;;5052276;28;20444;-47
2022/09/21 11:53:42;;;;;;;4.63;1.30;;;;;;;;;;5065397;28;20417;-46
2022/09/21 11:56:28;;;;;;;2.63;1.20;;;;;;;;;;5037541;28;20403;-46
2022/09/21 11:58:59;;;;;;;1.90;1.20;;;;;;;;;;5031358;28;20398;-46
2022/09/21 12:02:00;;;;;;;2.73;1.17;;;;;;;;;;5031241;28;20460;-45
2022/09/21 12:04:26;;;;;;;2.30;1.20;;;;;;;;;;5039064;28;20420;-46
2022/09/21 12:07:09;;;;;;;3.53;1.30;;;;;;;;;;5029348;28;20434;-45
2022/09/21 12:09:42;;;;;;;2.80;1.70;;;;;;;;;;5036753;28;20440;-44
2022/09/21 12:12:21;;;;;;;3.87;1.47;;;;;;;;;;5033806;28;20409;-45
2022/09/21 12:15:07;;;;;;;3.30;1.30;;;;;;;;;;5054853;28;20406;-44
2022/09/21 12:17:51;;;;;;;3.57;1.20;;;;;;;;;;5054507;28;20900;-47
2022/09/21 12:20:36;;;;;;;3.43;1.10;;;;;;;;;;5055163;28;20411;-44
2022/09/21 12:23:07;;;;;;;3.27;1.53;;;;;;;;;;5054670;28;20460;-44
2022/09/21 12:25:45;;;;;;;5.80;1.47;;;;;;;;;;5055147;28;20407;-46
2022/09/21 12:28:25;;;;;;;2.60;1.57;;;;;;;;;;5054830;28;20417;-46
2022/09/21 12:30:56;;;;;;;1.47;1.20;;;;;;;;;;5054795;28;20401;-48
2022/09/21 12:33:26;;;;;;;3.07;1.40;;;;;;;;;;5054143;28;20400;-49
2022/09/21 12:35:58;;;;;;;5.60;1.70;;;;;;;;;;5054203;28;20530;-48
2022/09/21 12:38:26;;;;;;;5.63;1.67;;;;;;;;;;5052763;28;20399;-48
2022/09/21 12:40:59;;;;;;;1.90;1.30;;;;;;;;;;5054150;28;20406;-45
2022/09/21 12:43:39;;;;;;;8.40;1.70;;;;;;;;;;5054351;28;20791;-46
2022/09/21 12:46:10;;;;;;;3.70;1.73;;;;;;;;;;5054974;28;20424;-47
2022/09/21 12:48:41;;;;;;;4.63;1.50;;;;;;;;;;5054941;28;20431;-44
2022/09/21 12:51:16;;;;;;;3.60;1.67;;;;;;;;;;5054927;28;20382;-44
2022/09/21 12:53:44;;;;;;;3.37;1.33;;;;;;;;;;5051708;28;20465;-47
2022/09/21 12:56:22;;;;;;;2.87;1.60;;;;;;;;;;5053867;28;20377;-44
2022/09/21 12:59:00;;;;;;;5.33;1.83;;;;;;;;;;5054538;28;20408;-44
2022/09/21 13:01:29;;;;;;;2.80;1.17;;;;;;;;;;5053882;28;20445;-44
2022/09/21 13:04:15;;;;;;;4.43;1.43;;;;;;;;;;5054298;28;20401;-44
2022/09/21 13:06:59;;;;;;;6.00;1.30;;;;;;;;;;5054333;28;20405;-45
2022/09/21 13:09:26;;;;;;;3.63;1.40;;;;;;;;;;5054462;28;20438;-44
2022/09/21 13:11:59;;;;;;;2.37;1.33;;;;;;;;;;5054390;28;20417;-44
2022/09/21 13:14:27;;;;;;;2.27;1.43;;;;;;;;;;5052536;28;20934;-45
2022/09/21 13:16:56;;;;;;;2.13;1.20;;;;;;;;;;5054528;28;20432;-44
2022/09/21 13:19:23;;;;;;;2.20;1.20;;;;;;;;;;5054327;28;20408;-44
2022/09/21 13:22:13;;;;;;;1.50;1.40;;;;;;;;;;5053903;28;20455;-45
2022/09/21 13:24:41;;;;;;;1.60;1.20;;;;;;;;;;5053816;28;20393;-44
2022/09/21 13:27:07;;;;;;;6.07;1.90;;;;;;;;;;5051952;28;20426;-44
2022/09/21 13:29:35;;;;;;;2.60;1.20;;;;;;;;;;5054040;28;20990;-45
2022/09/21 13:32:10;;;;;;;4.17;1.10;;;;;;;;;;5054343;28;20885;-45
2022/09/21 13:34:37;;;;;;;1.93;0.97;;;;;;;;;;5051904;28;20820;-44
2022/09/21 13:37:19;;;;;;;1.33;1.00;;;;;;;;;;5053712;28;20428;-47
2022/09/21 13:39:57;;;;;;;4.87;1.40;;;;;;;;;;5053726;28;20480;-47
2022/09/21 13:42:28;;;;;;;1.93;1.10;;;;;;;;;;5053115;28;21163;-48
2022/09/21 13:44:56;;;;;;;1.93;1.13;;;;;;;;;;5053699;28;20397;-47
2022/09/21 13:47:38;;;;;;;2.70;0.97;;;;;;;;;;5054018;28;20448;-46
2022/09/21 13:50:12;;;;;;;2.90;1.30;;;;;;;;;;5053627;28;20876;-46
2022/09/21 13:52:42;;;;;;;2.50;1.53;;;;;;;;;;5052991;28;20901;-46
2022/09/21 13:55:23;;;;;;;2.60;1.17;;;;;;;;;;5053373;28;20402;-47
2022/09/21 13:57:50;;;;;;;1.53;0.97;;;;;;;;;;5053359;28;20562;-46
2022/09/21 14:00:16;;;;;;;5.73;1.37;;;;;;;;;;5053245;28;20416;-47
2022/09/21 14:02:44;;;;;;;2.30;1.20;;;;;;;;;;5052435;28;20457;-46
2022/09/21 14:05:29;;;;;;;4.40;1.20;;;;;;;;;;5053302;28;20171;-46
2022/09/21 14:07:57;;;;;;;2.80;1.10;;;;;;;;;;5053130;28;20561;-48
2022/09/21 14:10:24;;;;;;;3.07;1.60;;;;;;;;;;5053201;28;20417;-46
2022/09/21 14:12:50;;;;;;;2.43;1.17;;;;;;;;;;5052576;28;20531;-46
2022/09/21 14:15:18;;;;;;;3.00;1.20;;;;;;;;;;5053036;28;20480;-47
2022/09/21 14:17:44;;;;;;;4.47;1.07;;;;;;;;;;5053220;28;20425;-47
2022/09/21 14:20:26;;;;;;;1.80;1.00;;;;;;;;;;5052981;28;20404;-46
2022/09/21 14:23:10;;;;;;;3.60;1.10;;;;;;;;;;5052242;28;20538;-46
2022/09/21 14:25:55;;;;;;;2.13;1.00;;;;;;;;;;5052935;28;20438;-46
2022/09/21 14:28:45;;;;;;;2.50;1.37;;;;;;;;;;5052831;28;20405;-47
2022/09/21 14:31:17;;;;;;;3.20;1.20;;;;;;;;;;5046290;28;20414;-46
2022/09/21 14:33:53;;;;;;;2.90;1.10;;;;;;;;;;5052474;28;20433;-46
2022/09/21 14:36:22;;;;;;;5.50;1.40;;;;;;;;;;5052236;28;20442;-47
2022/09/21 14:38:51;;;;;;;3.27;1.30;;;;;;;;;;5052762;28;20440;-46
2022/09/21 14:41:19;;;;;;;3.37;1.20;;;;;;;;;;5052650;28;20449;-47
2022/09/21 14:43:48;;;;;;;3.07;1.13;;;;;;;;;;5052366;28;20893;-47
2022/09/21 14:46:20;;;;;;;1.60;1.07;;;;;;;;;;5052704;28;20410;-47
2022/09/21 14:48:55;;;;;;;1.10;1.00;;;;;;;;;;5052716;28;20407;-46
2022/09/21 14:51:37;;;;;;;3.50;1.37;;;;;;;;;;5052446;28;20405;-47
2022/09/21 14:54:17;;;;;;;3.00;1.40;;;;;;;;;;5052192;28;20398;-47
2022/09/21 14:56:59;;;;;;;2.97;1.00;;;;;;;;;;5052634;28;20435;-47
2022/09/21 14:59:42;;;;;;;3.77;1.27;;;;;;;;;;5047664;28;20832;-45